createdAt,value
2023-05-15T00:01:38.306Z,15.73
2023-05-15T00:04:07.285Z,15.69
2023-05-15T00:06:38.602Z,15.65
2023-05-15T00:09:09.195Z,15.61
2023-05-15T00:11:42.334Z,15.57
2023-05-15T00:14:11.670Z,15.55
2023-05-15T00:16:44.095Z,15.54
2023-05-15T00:19:13.581Z,15.50
2023-05-15T00:21:43.033Z,15.46
2023-05-15T00:24:12.350Z,15.40
2023-05-15T00:26:41.698Z,15.33
2023-05-15T00:29:11.742Z,15.30
2023-05-15T00:31:46.464Z,15.25
2023-05-15T00:34:15.454Z,15.21
2023-05-15T00:36:46.859Z,15.14
2023-05-15T00:39:16.820Z,15.12
2023-05-15T00:41:47.268Z,15.09
2023-05-15T00:44:19.044Z,15.03
2023-05-15T00:46:47.974Z,15.00
2023-05-15T00:49:17.108Z,14.95
2023-05-15T00:51:46.251Z,14.89
2023-05-15T00:54:16.364Z,14.85
2023-05-15T00:56:45.990Z,14.80
2023-05-15T00:59:15.394Z,14.78
2023-05-15T01:01:44.987Z,14.76
2023-05-15T01:04:13.851Z,14.72
2023-05-15T01:06:43.435Z,14.69
2023-05-15T01:09:12.518Z,14.61
2023-05-15T01:11:42.278Z,14.57
2023-05-15T01:14:13.402Z,14.57
2023-05-15T01:16:42.861Z,14.56
2023-05-15T01:19:12.035Z,14.52
2023-05-15T01:21:55.847Z,14.47
2023-05-15T01:25:05.921Z,14.45
2023-05-15T01:27:42.008Z,14.42
2023-05-15T01:30:25.135Z,14.38
2023-05-15T01:33:17.151Z,14.31
2023-05-15T01:35:51.456Z,14.24
2023-05-15T01:38:39.013Z,14.17
2023-05-15T01:41:31.643Z,14.08
2023-05-15T01:44:10.689Z,13.99
2023-05-15T01:46:42.796Z,13.97
2023-05-15T01:49:13.715Z,13.94
2023-05-15T01:51:44.955Z,13.90
2023-05-15T01:54:14.682Z,13.87
2023-05-15T01:56:45.028Z,13.84
2023-05-15T01:59:14.659Z,13.81
2023-05-15T02:01:43.852Z,13.79
2023-05-15T02:04:13.438Z,13.79
2023-05-15T02:06:42.421Z,13.78
2023-05-15T02:09:12.351Z,13.76
2023-05-15T02:11:43.069Z,13.77
2023-05-15T02:14:12.240Z,13.74
2023-05-15T02:16:41.518Z,13.76
2023-05-15T02:19:10.973Z,13.76
2023-05-15T02:21:40.117Z,13.72
2023-05-15T02:24:09.346Z,13.72
2023-05-15T02:27:13.366Z,13.74
2023-05-15T02:30:11.801Z,13.70
2023-05-15T02:32:51.884Z,13.66
2023-05-15T02:35:32.852Z,13.55
2023-05-15T02:38:05.751Z,13.52
2023-05-15T02:40:36.620Z,13.54
2023-05-15T02:43:07.940Z,13.58
2023-05-15T02:45:38.119Z,13.62
2023-05-15T02:48:09.394Z,13.64
2023-05-15T02:50:38.894Z,13.60
2023-05-15T02:53:09.677Z,13.59
2023-05-15T02:55:38.771Z,13.58
2023-05-15T02:58:07.712Z,13.55
2023-05-15T03:00:37.000Z,13.58
2023-05-15T03:03:07.433Z,13.61
2023-05-15T03:05:37.011Z,13.59
2023-05-15T03:08:08.447Z,13.61
2023-05-15T03:10:37.655Z,13.60
2023-05-15T03:13:06.826Z,13.61
2023-05-15T03:15:35.936Z,13.63
2023-05-15T03:18:05.484Z,13.67
2023-05-15T03:20:34.435Z,13.64
2023-05-15T03:23:03.590Z,13.63
2023-05-15T03:25:32.844Z,13.64
2023-05-15T03:28:01.918Z,13.68
2023-05-15T03:30:31.140Z,13.72
2023-05-15T03:33:02.653Z,13.76
2023-05-15T03:35:32.351Z,13.82
2023-05-15T03:38:01.752Z,13.84
2023-05-15T03:40:30.977Z,13.89
2023-05-15T03:43:00.626Z,13.91
2023-05-15T03:45:30.090Z,13.96
2023-05-15T03:47:58.988Z,14.04
2023-05-15T03:50:29.596Z,14.11
2023-05-15T03:53:00.348Z,14.17
2023-05-15T03:55:30.528Z,14.22
2023-05-15T03:57:59.704Z,14.26
2023-05-15T04:00:31.634Z,14.28
2023-05-15T04:03:01.540Z,14.29
2023-05-15T04:05:31.445Z,14.32
2023-05-15T04:08:01.408Z,14.36
2023-05-15T04:10:32.688Z,14.42
2023-05-15T04:13:01.986Z,14.50
2023-05-15T04:15:31.061Z,14.59
2023-05-15T04:18:00.041Z,14.65
2023-05-15T04:20:29.489Z,14.74
2023-05-15T04:23:00.148Z,14.83
2023-05-15T04:25:29.664Z,14.92
2023-05-15T04:27:59.043Z,15.01
2023-05-15T04:30:28.006Z,15.10
2023-05-15T04:32:58.375Z,15.19
2023-05-15T04:35:27.879Z,15.26
2023-05-15T04:37:57.231Z,15.35
2023-05-15T04:40:26.460Z,15.44
2023-05-15T04:42:56.908Z,15.52
2023-05-15T04:45:26.858Z,15.63
2023-05-15T04:47:55.891Z,15.74
2023-05-15T04:50:25.371Z,15.87
2023-05-15T04:52:54.793Z,16.02
2023-05-15T04:55:24.227Z,16.16
2023-05-15T04:57:55.427Z,16.33
2023-05-15T05:00:24.749Z,16.51
2023-05-15T05:02:55.363Z,16.70
2023-05-15T05:05:24.314Z,16.91
2023-05-15T05:07:53.635Z,17.14
2023-05-15T05:10:23.149Z,17.35
2023-05-15T05:12:54.136Z,17.59
2023-05-15T05:15:24.775Z,17.90
2023-05-15T05:17:54.287Z,18.24
2023-05-15T05:20:23.600Z,18.62
2023-05-15T05:22:53.543Z,19.02
2023-05-15T05:25:24.092Z,19.39
2023-05-15T05:27:52.985Z,19.77
2023-05-15T05:30:23.595Z,20.20
2023-05-15T05:32:52.997Z,20.60
2023-05-15T05:35:22.340Z,20.98
2023-05-15T05:37:51.586Z,21.37
2023-05-15T05:42:50.310Z,22.18
2023-05-15T05:45:19.921Z,22.59
2023-05-15T05:47:49.515Z,23.01
2023-05-15T05:50:18.744Z,23.42
2023-05-15T05:52:47.878Z,23.80
2023-05-15T05:55:16.874Z,24.16
2023-05-15T05:57:46.064Z,24.49
2023-05-15T06:00:15.849Z,24.81
2023-05-15T06:02:45.263Z,25.09
2023-05-15T06:05:14.609Z,25.34
2023-05-15T06:07:44.193Z,25.56
2023-05-15T06:10:13.704Z,25.65
2023-05-15T06:12:43.642Z,25.82
2023-05-15T06:15:14.624Z,26.04
2023-05-15T06:17:44.556Z,26.13
2023-05-15T06:20:15.501Z,26.43
2023-05-15T06:22:45.079Z,26.43
2023-05-15T06:25:14.745Z,26.64
2023-05-15T06:27:44.413Z,26.85
2023-05-15T06:30:14.505Z,26.91
2023-05-15T06:32:44.555Z,26.99
2023-05-15T06:35:14.689Z,27.17
2023-05-15T06:37:44.166Z,27.33
2023-05-15T06:40:13.743Z,27.43
2023-05-15T06:42:43.025Z,27.58
2023-05-15T06:45:12.815Z,27.61
2023-05-15T06:47:41.865Z,27.61
2023-05-15T06:50:11.318Z,27.69
2023-05-15T06:52:40.912Z,27.79
2023-05-15T06:55:10.620Z,27.80
2023-05-15T06:57:39.983Z,27.87
2023-05-15T07:00:10.595Z,27.98
2023-05-15T07:02:40.478Z,28.01
2023-05-15T07:05:11.283Z,28.06
2023-05-15T07:07:40.938Z,28.18
2023-05-15T07:10:10.236Z,28.34
2023-05-15T07:12:40.302Z,28.43
2023-05-15T07:15:10.099Z,28.50
2023-05-15T07:17:40.339Z,28.66
2023-05-15T07:20:10.620Z,28.84
2023-05-15T07:22:51.883Z,28.90
2023-05-15T07:25:11.214Z,29.04
2023-05-15T07:27:40.926Z,29.07
2023-05-15T07:30:11.666Z,28.96
2023-05-15T07:32:42.090Z,28.90
2023-05-15T07:35:12.195Z,28.98
2023-05-15T07:37:42.162Z,29.08
2023-05-15T07:40:12.334Z,29.24
2023-05-15T07:42:44.812Z,29.37
2023-05-15T07:45:14.843Z,29.30
2023-05-15T07:47:47.430Z,29.38
2023-05-15T07:50:17.262Z,29.52
2023-05-15T07:52:46.301Z,29.67
2023-05-15T07:55:14.869Z,29.77
2023-05-15T07:57:45.420Z,29.93
2023-05-15T08:00:17.196Z,30.02
2023-05-15T08:02:47.142Z,29.98
2023-05-15T08:05:17.025Z,29.87
2023-05-15T08:07:46.498Z,29.76
2023-05-15T08:10:15.518Z,29.78
2023-05-15T08:12:47.250Z,29.85
2023-05-15T08:15:16.553Z,29.90
2023-05-15T08:17:45.776Z,30.01
2023-05-15T08:20:17.403Z,30.10
2023-05-15T08:22:47.060Z,30.20
2023-05-15T08:25:16.945Z,30.29
2023-05-15T08:27:46.693Z,30.30
2023-05-15T08:30:19.821Z,30.15
2023-05-15T08:32:49.422Z,30.06
2023-05-15T08:35:18.667Z,30.02
2023-05-15T08:37:48.682Z,30.00
2023-05-15T08:40:23.422Z,30.09
2023-05-15T08:42:53.338Z,30.27
2023-05-15T08:45:23.799Z,30.32
2023-05-15T08:47:53.378Z,30.40
2023-05-15T08:50:22.635Z,30.51
2023-05-15T08:52:52.230Z,30.58
2023-05-15T08:55:23.504Z,30.62
2023-05-15T08:57:53.521Z,30.60
2023-05-15T09:00:22.777Z,30.48
2023-05-15T09:02:54.458Z,30.42
2023-05-15T09:05:24.950Z,30.33
2023-05-15T09:07:54.422Z,30.21
2023-05-15T09:10:23.986Z,30.04
2023-05-15T09:12:54.262Z,29.84
2023-05-15T09:15:24.989Z,29.62
2023-05-15T09:17:54.868Z,29.42
2023-05-15T09:20:31.850Z,29.31
2023-05-15T09:23:03.881Z,29.17
2023-05-15T09:25:42.005Z,28.98
2023-05-15T09:28:28.428Z,28.75
2023-05-15T09:31:03.190Z,28.56
2023-05-15T09:33:37.540Z,28.35
2023-05-15T09:36:08.471Z,28.24
2023-05-15T09:38:43.208Z,28.19
2023-05-15T09:41:12.051Z,28.10
2023-05-15T09:43:41.954Z,27.99
2023-05-15T09:46:13.093Z,27.92
2023-05-15T09:48:42.614Z,27.87
2023-05-15T09:51:19.454Z,27.89
2023-05-15T09:53:52.932Z,27.92
2023-05-15T09:56:22.261Z,27.76
2023-05-15T09:59:01.204Z,27.76
2023-05-15T10:01:31.780Z,27.67
2023-05-15T10:04:02.190Z,27.60
2023-05-15T10:06:37.949Z,27.52
2023-05-15T10:09:08.747Z,27.45
2023-05-15T10:11:40.507Z,27.41
2023-05-15T10:14:12.397Z,27.41
2023-05-15T10:16:42.148Z,27.44
2023-05-15T10:19:12.522Z,27.51
2023-05-15T10:21:42.654Z,27.53
2023-05-15T10:24:13.083Z,27.54
2023-05-15T10:26:42.855Z,27.53
2023-05-15T10:29:13.366Z,27.48
2023-05-15T10:31:43.204Z,27.41
2023-05-15T10:34:13.440Z,27.43
2023-05-15T10:36:43.755Z,27.44
2023-05-15T10:39:13.730Z,27.48
2023-05-15T10:41:44.302Z,27.49
2023-05-15T10:44:12.907Z,27.41
2023-05-15T10:46:43.544Z,27.30
2023-05-15T10:49:13.267Z,27.28
2023-05-15T10:51:43.009Z,27.35
2023-05-15T10:54:12.788Z,27.32
2023-05-15T10:56:42.061Z,27.23
2023-05-15T10:59:12.156Z,27.18
2023-05-15T11:01:41.674Z,27.12
2023-05-15T11:04:15.567Z,27.12
2023-05-15T11:06:46.549Z,27.10
2023-05-15T11:09:37.521Z,27.07
2023-05-15T11:12:11.552Z,27.05
2023-05-15T11:14:56.556Z,27.06
2023-05-15T11:17:26.591Z,27.06
2023-05-15T11:19:58.047Z,27.10
2023-05-15T11:22:33.212Z,27.14
2023-05-15T11:25:05.982Z,27.13
2023-05-15T11:27:47.305Z,27.11
2023-05-15T11:30:26.519Z,27.01
2023-05-15T11:33:10.969Z,26.96
2023-05-15T11:35:48.275Z,26.95
2023-05-15T11:38:25.730Z,26.89
2023-05-15T11:41:01.772Z,26.89
2023-05-15T11:43:44.144Z,26.89
2023-05-15T11:46:23.570Z,26.87
2023-05-15T11:48:53.491Z,26.84
2023-05-15T11:51:26.439Z,26.89
2023-05-15T11:53:56.450Z,26.88
2023-05-15T11:56:29.247Z,26.82
2023-05-15T11:58:59.365Z,26.80
2023-05-15T12:01:29.770Z,26.78
2023-05-15T12:03:59.252Z,26.76
2023-05-15T12:06:28.590Z,26.75
2023-05-15T12:08:57.789Z,26.73
2023-05-15T12:11:27.136Z,26.74
2023-05-15T12:13:56.239Z,26.73
2023-05-15T12:16:28.488Z,26.71
2023-05-15T12:18:57.927Z,26.70
2023-05-15T12:21:30.153Z,26.71
2023-05-15T12:24:07.684Z,26.73
2023-05-15T12:26:32.016Z,26.77
2023-05-15T12:29:00.901Z,26.79
2023-05-15T12:31:31.168Z,26.79
2023-05-15T12:34:00.688Z,26.81
2023-05-15T12:36:31.016Z,26.79
2023-05-15T12:39:02.054Z,26.78
2023-05-15T12:41:32.138Z,26.77
2023-05-15T12:44:02.141Z,26.71
2023-05-15T12:46:31.884Z,26.67
2023-05-15T12:49:02.210Z,26.61
2023-05-15T12:51:32.139Z,26.58
2023-05-15T12:54:02.014Z,26.57
2023-05-15T12:56:31.180Z,26.58
2023-05-15T12:59:01.179Z,26.62
2023-05-15T13:01:30.509Z,26.64
2023-05-15T13:04:01.423Z,26.67
2023-05-15T13:06:44.870Z,26.68
2023-05-15T13:09:02.019Z,26.68
2023-05-15T13:11:34.696Z,26.67
2023-05-15T13:14:09.506Z,26.64
2023-05-15T13:16:38.561Z,26.62
2023-05-15T13:19:10.017Z,26.62
2023-05-15T13:21:39.798Z,26.56
2023-05-15T13:24:11.130Z,26.49
2023-05-15T13:26:41.727Z,26.46
2023-05-15T13:29:11.468Z,26.48
2023-05-15T13:31:40.892Z,26.47
2023-05-15T13:34:10.304Z,26.51
2023-05-15T13:36:39.459Z,26.48
2023-05-15T13:39:09.138Z,26.48
2023-05-15T13:41:40.033Z,26.48
2023-05-15T13:44:09.856Z,26.47
2023-05-15T13:46:39.157Z,26.39
2023-05-15T13:49:10.443Z,26.31
2023-05-15T13:51:40.930Z,26.23
2023-05-15T13:54:11.061Z,26.15
2023-05-15T13:56:40.610Z,26.10
2023-05-15T13:59:10.011Z,26.06
2023-05-15T14:01:39.927Z,26.05
2023-05-15T14:04:09.992Z,26.04
2023-05-15T14:06:41.087Z,26.00
2023-05-15T14:09:11.097Z,25.98
2023-05-15T14:11:41.202Z,25.96
2023-05-15T14:14:11.269Z,25.94
2023-05-15T14:16:41.433Z,25.93
2023-05-15T14:19:10.942Z,25.92
2023-05-15T14:21:40.517Z,25.87
2023-05-15T14:24:10.065Z,25.86
2023-05-15T14:26:39.471Z,25.86
2023-05-15T14:29:10.332Z,25.83
2023-05-15T14:31:40.806Z,25.81
2023-05-15T14:34:09.758Z,25.80
2023-05-15T14:36:39.340Z,25.79
2023-05-15T14:39:08.681Z,25.77
2023-05-15T14:41:38.181Z,25.78
2023-05-15T14:44:07.860Z,25.78
2023-05-15T14:46:38.386Z,25.80
2023-05-15T14:49:07.813Z,25.82
2023-05-15T14:51:37.613Z,25.82
2023-05-15T14:54:07.420Z,25.85
2023-05-15T14:56:38.049Z,25.88
2023-05-15T14:59:07.470Z,25.86
2023-05-15T15:01:38.104Z,25.84
2023-05-15T15:04:07.715Z,25.83
2023-05-15T15:06:37.553Z,25.83
2023-05-15T15:09:08.652Z,25.82
2023-05-15T15:11:38.573Z,25.83
2023-05-15T15:14:08.203Z,25.82
2023-05-15T15:16:38.048Z,25.81
2023-05-15T15:19:08.280Z,25.79
2023-05-15T15:21:37.983Z,25.77
2023-05-15T15:24:07.632Z,25.74
2023-05-15T15:26:37.778Z,25.70
2023-05-15T15:29:09.517Z,25.69
2023-05-15T15:31:40.088Z,25.65
2023-05-15T15:34:09.942Z,25.63
2023-05-15T15:36:40.919Z,25.59
2023-05-15T15:39:11.683Z,25.56
2023-05-15T15:41:46.957Z,25.54
2023-05-15T15:44:20.198Z,25.52
2023-05-15T15:46:49.638Z,25.50
2023-05-15T15:49:18.974Z,25.47
2023-05-15T15:51:48.803Z,25.43
2023-05-15T15:54:20.651Z,25.42
2023-05-15T15:56:50.081Z,25.41
2023-05-15T15:59:19.051Z,25.40
2023-05-15T16:01:49.168Z,25.39
2023-05-15T16:04:19.488Z,25.35
2023-05-15T16:06:48.734Z,25.33
2023-05-15T16:09:19.722Z,25.27
2023-05-15T16:11:48.857Z,25.22
2023-05-15T16:14:23.789Z,25.16
2023-05-15T16:16:53.199Z,25.13
2023-05-15T16:19:23.728Z,25.08
2023-05-15T16:21:53.454Z,25.01
2023-05-15T16:24:23.903Z,24.98
2023-05-15T16:26:55.002Z,24.93
2023-05-15T16:29:24.503Z,24.88
2023-05-15T16:31:56.270Z,24.86
2023-05-15T16:34:25.903Z,24.84
2023-05-15T16:36:55.143Z,24.81
2023-05-15T16:39:26.530Z,24.78
2023-05-15T16:41:55.835Z,24.74
2023-05-15T16:44:24.500Z,24.71
2023-05-15T16:46:53.620Z,24.67
2023-05-15T16:49:23.030Z,24.61
2023-05-15T16:51:52.687Z,24.57
2023-05-15T16:54:21.367Z,24.52
2023-05-15T16:56:52.011Z,24.48
2023-05-15T16:59:21.324Z,24.43
2023-05-15T17:01:50.798Z,24.38
2023-05-15T17:04:20.215Z,24.34
2023-05-15T17:06:51.528Z,24.29
2023-05-15T17:09:21.579Z,24.23
2023-05-15T17:11:50.597Z,24.13
2023-05-15T17:14:19.752Z,24.04
2023-05-15T17:16:49.043Z,23.97
2023-05-15T17:19:19.667Z,23.86
2023-05-15T17:21:48.982Z,23.77
2023-05-15T17:24:18.798Z,23.69
2023-05-15T17:26:48.088Z,23.60
2023-05-15T17:29:18.283Z,23.49
2023-05-15T17:31:47.559Z,23.39
2023-05-15T17:34:17.010Z,23.32
2023-05-15T17:36:46.311Z,23.24
2023-05-15T17:39:15.652Z,23.20
2023-05-15T17:41:46.679Z,23.16
2023-05-15T17:44:16.501Z,23.11
2023-05-15T17:46:45.675Z,23.06
2023-05-15T17:49:15.201Z,23.02
2023-05-15T17:51:44.609Z,22.93
2023-05-15T17:54:13.691Z,22.82
2023-05-15T17:56:45.084Z,22.72
2023-05-15T17:59:16.155Z,22.64
2023-05-15T18:01:45.236Z,22.58
2023-05-15T18:04:16.285Z,22.49
2023-05-15T18:06:47.288Z,22.39
2023-05-15T18:09:16.706Z,22.33
2023-05-15T18:11:46.495Z,22.28
2023-05-15T18:14:17.916Z,22.22
2023-05-15T18:16:46.989Z,22.14
2023-05-15T18:19:16.287Z,22.03
2023-05-15T18:21:45.318Z,21.95
2023-05-15T18:24:15.682Z,21.90
2023-05-15T18:26:46.695Z,21.83
2023-05-15T18:29:16.333Z,21.74
2023-05-15T18:31:46.108Z,21.64
2023-05-15T18:34:16.241Z,21.54
2023-05-15T18:36:49.644Z,21.42
2023-05-15T18:39:19.091Z,21.34
2023-05-15T18:41:48.469Z,21.20
2023-05-15T18:44:17.808Z,21.09
2023-05-15T18:46:48.227Z,21.01
2023-05-15T18:49:17.815Z,20.97
2023-05-15T18:51:47.013Z,20.96
2023-05-15T18:54:16.211Z,20.92
2023-05-15T18:56:46.113Z,20.89
2023-05-15T18:59:15.972Z,20.84
2023-05-15T19:01:46.321Z,20.79
2023-05-15T19:04:16.063Z,20.78
2023-05-15T19:06:46.871Z,20.74
2023-05-15T19:09:18.880Z,20.70
2023-05-15T19:11:51.848Z,20.64
2023-05-15T19:14:21.509Z,20.61
2023-05-15T19:16:51.140Z,20.50
2023-05-15T19:19:21.103Z,20.43
2023-05-15T19:21:51.884Z,20.39
2023-05-15T19:24:23.246Z,20.36
2023-05-15T19:26:52.737Z,20.35
2023-05-15T19:29:21.956Z,20.31
2023-05-15T19:31:51.109Z,20.24
2023-05-15T19:34:21.035Z,20.22
2023-05-15T19:36:50.574Z,20.18
2023-05-15T19:39:19.935Z,20.12
2023-05-15T19:41:50.302Z,20.04
2023-05-15T19:44:19.976Z,19.93
2023-05-15T19:46:49.369Z,19.85
2023-05-15T19:49:18.679Z,19.82
2023-05-15T19:51:48.475Z,19.79
2023-05-15T19:54:18.829Z,19.75
2023-05-15T19:56:49.333Z,19.72
2023-05-15T19:59:19.282Z,19.71
2023-05-15T20:01:48.489Z,19.70
2023-05-15T20:04:17.823Z,19.69
2023-05-15T20:06:47.682Z,19.66
2023-05-15T20:09:17.427Z,19.63
2023-05-15T20:11:46.431Z,19.54
2023-05-15T20:14:15.942Z,19.48
2023-05-15T20:16:45.363Z,19.46
2023-05-15T20:19:16.758Z,19.45
2023-05-15T20:21:47.841Z,19.42
2023-05-15T20:24:18.195Z,19.41
2023-05-15T20:26:47.426Z,19.39
2023-05-15T20:29:16.824Z,19.42
2023-05-15T20:31:46.510Z,19.45
2023-05-15T20:34:16.967Z,19.49
2023-05-15T20:36:47.514Z,19.55
2023-05-15T20:39:17.237Z,19.59
2023-05-15T20:41:47.233Z,19.63
2023-05-15T20:44:16.933Z,19.68
2023-05-15T20:46:46.607Z,19.73
2023-05-15T20:49:16.079Z,19.75
2023-05-15T20:51:45.424Z,19.78
2023-05-15T20:54:17.533Z,19.81
2023-05-15T20:56:48.150Z,19.84
2023-05-15T20:59:18.168Z,19.87
2023-05-15T21:01:47.952Z,19.90
2023-05-15T21:04:17.724Z,19.91
2023-05-15T21:06:47.552Z,19.93
2023-05-15T21:09:17.090Z,19.93
2023-05-15T21:11:47.288Z,19.93
2023-05-15T21:14:17.145Z,19.90
2023-05-15T21:16:46.713Z,19.88
2023-05-15T21:19:16.299Z,19.87
2023-05-15T21:21:46.152Z,19.84
2023-05-15T21:24:16.848Z,19.84
2023-05-15T21:26:46.990Z,19.85
2023-05-15T21:29:16.437Z,19.82
2023-05-15T21:31:45.628Z,19.81
2023-05-15T21:34:17.234Z,19.80
2023-05-15T21:36:47.089Z,19.79
2023-05-15T21:39:16.403Z,19.78
2023-05-15T21:41:45.569Z,19.78
2023-05-15T21:44:14.865Z,19.78
2023-05-15T21:46:45.438Z,19.75
2023-05-15T21:49:15.273Z,19.71
2023-05-15T21:51:44.923Z,19.68
2023-05-15T21:54:14.468Z,19.65
2023-05-15T21:56:43.785Z,19.63
2023-05-15T21:59:14.640Z,19.62
2023-05-15T22:01:44.943Z,19.62
2023-05-15T22:04:14.707Z,19.61
2023-05-15T22:06:44.144Z,19.57
2023-05-15T22:09:13.965Z,19.56
2023-05-15T22:11:43.396Z,19.49
2023-05-15T22:17:01.632Z,19.30
2023-05-15T22:19:33.425Z,19.18
2023-05-15T22:22:04.279Z,19.09
2023-05-15T22:24:35.374Z,19.05
2023-05-15T22:27:05.377Z,19.04
2023-05-15T22:29:35.170Z,19.04
2023-05-15T22:32:06.489Z,19.04
2023-05-15T22:34:36.343Z,19.00
2023-05-15T22:37:05.811Z,18.99
2023-05-15T22:39:35.133Z,18.97
2023-05-15T22:42:04.835Z,18.93
2023-05-15T22:44:34.032Z,18.88
2023-05-15T22:47:03.536Z,18.84
2023-05-15T22:49:33.226Z,18.81
2023-05-15T22:52:02.171Z,18.75
2023-05-15T22:54:32.118Z,18.71
2023-05-15T22:57:02.546Z,18.68
2023-05-15T22:59:32.065Z,18.65
2023-05-15T23:02:02.477Z,18.60
2023-05-15T23:04:32.050Z,18.56
2023-05-15T23:07:01.802Z,18.50
2023-05-15T23:09:31.500Z,18.46
2023-05-15T23:12:01.559Z,18.39
2023-05-15T23:14:31.772Z,18.34
2023-05-15T23:17:00.977Z,18.32
2023-05-15T23:19:31.521Z,18.29
2023-05-15T23:22:01.304Z,18.26
2023-05-15T23:24:31.548Z,18.22
2023-05-15T23:27:01.203Z,18.11
2023-05-15T23:29:31.153Z,18.02
2023-05-15T23:32:00.448Z,17.93
2023-05-15T23:34:29.711Z,17.87
2023-05-15T23:36:58.904Z,17.88
2023-05-15T23:39:27.984Z,17.84
2023-05-15T23:41:57.468Z,17.82
2023-05-15T23:44:27.308Z,17.81
2023-05-15T23:46:57.480Z,17.78
2023-05-15T23:49:26.573Z,17.80
2023-05-15T23:51:56.045Z,17.79
2023-05-15T23:54:25.826Z,17.81
2023-05-15T23:56:56.239Z,17.82
2023-05-15T23:59:26.002Z,17.85
